Aviation Digital Data Service (ADDS)

Output produced by METARs form (0250 UTC 23 February 2017)
found at http://aviationweather.gov/adds/metars/
 
KLAN 222339Z 2300/2324 20012G20KT 6SM HZ SCT023 
     FM230200 18009KT P6SM OVC250 
     FM230400 20010KT P6SM VCSH OVC100 
     FM230600 21014KT 2SM BR VCSH OVC015 
     FM230800 22011KT 4SM BR OVC025 
     FM231500 32007KT P6SM SCT025 SCT250